Bennington, VT

10:14 AM EST on November 26, 2014 (GMT -0500)
Sacred Heart School | Change Station
CLOSE
Current Station
Personal Weather Station
Location: Bennington, VT
Elevation: 685 ft
Nearby Weather Stations
Active Advisory: Winter Storm Warning

Elev 685 ft 42.88 °N, 73.19 °W | Updated 7 seconds ago

Snow
Snow
36.0 °F
Feels Like 36 °F
N
0.0
Wind Variable Wind from North
Gusts 0.0 mph

Today
High -- | Low -- °F
--% Chance of Precip.
Yesterday
High -- | Low -- °F
Precip. -- in
6:58 AM 4:21 PM
Waxing Crescent, 20% visible
Pressure 30.15 in
Visibility 10.0 miles
Clouds Overcast 7000 ft
Windchill 36 °F
Dew Point -14 °F
Humidity 12%
Rainfall 0.00 in
Snow Depth Not available.
UV 1 out of 12
Pollen .10 out of 12
Air Quality Not available.
Flu Activity Not available.
METAR KDDH 261454Z AUTO 00000KT 10SM OVC070 02/M02 A3013 RMK AO2 SLP210 T00171017 58014

More Conditions Fewer Conditions

Pressure 30.15 in
Visibility 10.0 miles
Clouds Overcast 7000 ft
Windchill 36 °F
Dew Point -14 °F
Humidity 12%
Rainfall 0.00 in
Snow Depth Not available.
UV 1 out of 12
Pollen .10 out of 12
Air Quality Not available.
Flu Activity Not available.
METAR KDDH 261454Z AUTO 00000KT 10SM OVC070 02/M02 A3013 RMK AO2 SLP210 T00171017 58014

More Conditions Fewer Conditions

10-Day Weather Forecast

Almanac

Astronomy

Nov. 26, 2014 Rise Set
Actual Time
Civil Twilight
Nautical Twilight
Astronomical Twilight
Moon
Length of Visible Light
Length of Day
Tomorrow will be .
, % of the Moon is Illuminated

Today's Extremes

State Highs State Lows

Community

WunderPhotos

Upload Photos

1,773,771 photos uploaded!

WunderBlogs® & News

Nearby

Air Quality

  Air Quality AQ Index Pollutant
Not available.

Snow Depth

Station Depth Elevation

Earthquake Activity

City Distance Mag. Time & Date
Minimum magnitude displayed is 2.5.

Coastal Water Temperatures

Place Temperature

Nearby Weather Stations